Time;durP1;ratioP1;P1;durP2;ratioP2;P2;SDS_P1;SDS_P2;PMS_P1;PMS_P2;Temp;Humidity;BMP_temperature;BMP_pressure;BME280_temperature;BME280_humidity;BME280_pressure;Samples;Min_cycle;Max_cycle;Signal;HPM_P1;HPM_P2
2023/08/01 00:01:41;;;;;;;7.80;5.50;;;18.00;74.30;;;;;;6227902;28;20245;-84
2023/08/01 00:04:44;;;;;;;6.83;5.13;;;18.00;74.60;;;;;;6220257;28;20747;-82
2023/08/01 00:07:47;;;;;;;8.13;5.73;;;18.00;75.00;;;;;;6220892;28;20246;-83
2023/08/01 00:10:50;;;;;;;6.10;5.50;;;17.80;75.80;;;;;;6229884;28;20238;-84
2023/08/01 00:13:54;;;;;;;6.47;5.90;;;17.80;76.10;;;;;;6223631;28;20235;-85
2023/08/01 00:16:58;;;;;;;8.80;5.70;;;17.70;76.60;;;;;;6231984;28;20330;-84
2023/08/01 00:20:02;;;;;;;6.10;5.63;;;17.60;76.50;;;;;;6230243;28;20796;-84
2023/08/01 00:23:05;;;;;;;6.93;5.73;;;17.60;76.60;;;;;;6233481;28;20258;-83
2023/08/01 00:26:08;;;;;;;5.67;5.13;;;17.50;77.30;;;;;;6238093;28;20373;-84
2023/08/01 00:29:12;;;;;;;7.37;5.67;;;17.50;77.90;;;;;;6231190;28;20320;-86
2023/08/01 00:32:16;;;;;;;5.63;5.13;;;17.40;78.20;;;;;;6222417;28;20242;-84
2023/08/01 00:35:19;;;;;;;5.80;5.40;;;17.40;78.50;;;;;;6222662;28;20317;-83
2023/08/01 00:38:23;;;;;;;7.13;5.10;;;17.20;79.00;;;;;;6230111;28;20277;-86
2023/08/01 00:41:26;;;;;;;5.27;4.70;;;17.20;79.30;;;;;;6205434;28;20234;-81
2023/08/01 00:44:29;;;;;;;4.70;4.47;;;17.10;79.50;;;;;;6225645;28;20704;-84
2023/08/01 00:47:34;;;;;;;4.73;4.43;;;17.00;79.70;;;;;;6228732;28;20750;-84
2023/08/01 00:50:38;;;;;;;4.50;4.20;;;17.00;80.00;;;;;;6228875;28;20954;-83
2023/08/01 00:53:42;;;;;;;4.23;3.90;;;16.90;80.40;;;;;;6220093;28;20317;-83
2023/08/01 00:56:46;;;;;;;4.13;3.93;;;16.80;80.30;;;;;;6221954;28;20247;-83
2023/08/01 00:59:49;;;;;;;4.87;4.57;;;16.80;80.50;;;;;;6231627;28;20850;-85
2023/08/01 01:02:53;;;;;;;4.50;4.30;;;16.80;80.50;;;;;;6212805;28;20334;-85
2023/08/01 01:06:08;;;;;;;4.67;4.47;;;16.70;81.00;;;;;;6223144;28;20235;-82
2023/08/01 01:09:17;;;;;;;4.73;4.53;;;16.70;81.20;;;;;;6221348;28;20249;-83
2023/08/01 01:12:20;;;;;;;4.80;4.40;;;16.70;81.40;;;;;;6227932;28;20246;-83
2023/08/01 01:15:24;;;;;;;4.83;4.47;;;16.70;81.40;;;;;;6228758;28;20230;-83
2023/08/01 01:18:31;;;;;;;6.93;4.80;;;16.70;81.60;;;;;;6227555;28;20234;-85
2023/08/01 01:21:36;;;;;;;4.73;4.40;;;16.70;81.60;;;;;;6215100;28;20290;-85
2023/08/01 01:24:42;;;;;;;5.20;4.70;;;16.70;81.80;;;;;;6213207;28;20262;-85
2023/08/01 01:27:46;;;;;;;4.60;4.23;;;16.70;82.10;;;;;;6214866;28;20230;-82
2023/08/01 01:30:50;;;;;;;5.37;5.00;;;16.60;82.10;;;;;;6232780;28;20238;-83
2023/08/01 01:33:56;;;;;;;5.30;5.00;;;16.60;82.60;;;;;;6226874;28;20763;-82
2023/08/01 01:37:01;;;;;;;5.70;5.30;;;16.50;82.60;;;;;;6221520;28;20376;-84
2023/08/01 01:40:04;;;;;;;5.73;5.20;;;16.60;82.70;;;;;;6234153;28;20245;-83
2023/08/01 01:43:07;;;;;;;5.10;4.70;;;16.60;82.80;;;;;;6232878;28;20308;-81
2023/08/01 01:46:11;;;;;;;5.00;4.67;;;16.60;82.90;;;;;;6225035;28;20273;-82
2023/08/01 01:49:14;;;;;;;5.97;5.43;;;16.60;82.80;;;;;;6240487;28;20681;-85
2023/08/01 01:52:18;;;;;;;6.73;5.90;;;16.60;82.80;;;;;;6221485;28;20234;-85
2023/08/01 01:55:21;;;;;;;6.07;5.57;;;16.60;82.90;;;;;;6213905;28;20382;-84
2023/08/01 01:58:25;;;;;;;6.47;5.97;;;16.60;83.00;;;;;;6219583;28;20611;-84
2023/08/01 02:01:28;;;;;;;6.37;5.87;;;16.60;83.00;;;;;;6219622;28;20246;-83
2023/08/01 02:04:31;;;;;;;6.57;6.17;;;16.50;83.30;;;;;;6224368;28;20607;-82
2023/08/01 02:07:36;;;;;;;6.17;5.80;;;16.50;83.30;;;;;;6219862;28;20250;-83
2023/08/01 02:10:40;;;;;;;6.30;5.83;;;16.50;83.50;;;;;;6233410;28;20827;-84
2023/08/01 02:13:43;;;;;;;6.60;5.97;;;16.50;83.60;;;;;;6219566;28;20230;-86
2023/08/01 02:16:46;;;;;;;5.93;5.63;;;16.50;83.60;;;;;;6233167;28;20258;-82
2023/08/01 02:19:49;;;;;;;6.47;5.83;;;16.50;83.70;;;;;;6223428;28;20811;-83
2023/08/01 02:22:54;;;;;;;5.73;5.40;;;16.50;83.60;;;;;;6217005;28;20774;-81
2023/08/01 02:25:57;;;;;;;5.70;5.20;;;16.60;83.30;;;;;;6239656;28;20308;-82
2023/08/01 02:29:00;;;;;;;6.30;5.90;;;16.50;83.50;;;;;;6225042;28;20658;-85
2023/08/01 02:32:03;;;;;;;6.17;5.87;;;16.50;83.60;;;;;;6231836;28;20275;-82
2023/08/01 02:35:07;;;;;;;6.20;5.80;;;16.50;83.50;;;;;;6231676;28;20247;-82
2023/08/01 02:38:12;;;;;;;6.97;6.43;;;16.50;83.60;;;;;;6218495;28;20851;-83
2023/08/01 02:41:15;;;;;;;6.03;5.67;;;16.50;83.60;;;;;;6217183;28;20267;-84
2023/08/01 02:44:18;;;;;;;6.77;6.20;;;16.50;83.70;;;;;;6241032;28;20289;-83
2023/08/01 02:47:21;;;;;;;7.03;6.43;;;16.60;83.60;;;;;;6231890;28;20242;-83
2023/08/01 02:50:24;;;;;;;6.60;6.10;;;16.60;83.50;;;;;;6223267;28;20222;-84
2023/08/01 02:53:29;;;;;;;6.70;6.30;;;16.60;83.40;;;;;;6231937;28;20692;-82
2023/08/01 02:56:32;;;;;;;7.27;6.50;;;16.50;83.50;;;;;;6221978;28;20858;-85
2023/08/01 02:59:35;;;;;;;7.00;6.40;;;16.50;83.50;;;;;;6230507;28;20318;-84
2023/08/01 03:02:39;;;;;;;7.17;6.53;;;16.60;83.40;;;;;;6215502;28;20740;-84
2023/08/01 03:05:44;;;;;;;7.20;6.53;;;16.60;83.50;;;;;;6230449;28;20235;-83
2023/08/01 03:08:51;;;;;;;6.60;6.07;;;16.50;83.30;;;;;;6220052;28;20240;-83
2023/08/01 03:11:54;;;;;;;7.00;6.43;;;16.60;83.30;;;;;;6230548;28;20437;-84
2023/08/01 03:14:57;;;;;;;6.67;6.07;;;16.60;83.20;;;;;;6232574;28;20239;-82
2023/08/01 03:18:00;;;;;;;7.10;6.60;;;16.60;83.20;;;;;;6214347;28;20305;-85
2023/08/01 03:21:05;;;;;;;6.50;5.90;;;16.60;83.20;;;;;;6225591;28;20266;-85
2023/08/01 03:24:10;;;;;;;5.63;5.33;;;16.70;82.90;;;;;;6230575;28;20272;-83
2023/08/01 03:27:13;;;;;;;6.60;5.90;;;16.60;83.00;;;;;;6228435;28;20289;-82
2023/08/01 03:30:16;;;;;;;6.10;5.60;;;16.60;83.00;;;;;;6234084;28;20293;-82
2023/08/01 03:33:20;;;;;;;6.33;5.73;;;16.60;82.90;;;;;;6213725;28;20324;-80
2023/08/01 03:36:23;;;;;;;6.67;5.87;;;16.60;82.80;;;;;;6226509;28;20301;-79
2023/08/01 03:39:27;;;;;;;5.80;5.23;;;16.60;82.80;;;;;;6228310;28;20297;-81
2023/08/01 03:42:31;;;;;;;6.50;6.10;;;16.60;82.90;;;;;;6218102;28;20312;-78
2023/08/01 03:45:34;;;;;;;6.37;5.83;;;16.60;82.90;;;;;;6213166;28;20243;-81
2023/08/01 03:48:37;;;;;;;6.30;5.80;;;16.60;82.90;;;;;;6213626;28;20231;-82
2023/08/01 03:51:40;;;;;;;7.70;5.97;;;16.50;83.00;;;;;;6212635;28;20234;-80
2023/08/01 03:54:45;;;;;;;5.60;5.30;;;16.50;83.00;;;;;;6219079;28;20745;-81
2023/08/01 03:57:48;;;;;;;5.57;5.27;;;16.60;83.10;;;;;;6221397;28;20767;-81
2023/08/01 04:00:51;;;;;;;5.30;5.10;;;16.60;82.80;;;;;;6225022;28;20239;-80
2023/08/01 04:03:54;;;;;;;7.83;6.40;;;16.70;82.70;;;;;;6225797;28;20234;-79
2023/08/01 04:06:58;;;;;;;6.10;5.60;;;16.70;82.40;;;;;;6221980;28;20235;-79
2023/08/01 04:10:03;;;;;;;5.80;5.30;;;16.70;82.50;;;;;;6222059;28;20255;-82
2023/08/01 04:13:06;;;;;;;6.07;5.60;;;16.70;82.60;;;;;;6227225;28;20278;-81
2023/08/01 04:16:11;;;;;;;5.80;5.50;;;16.70;82.40;;;;;;6228843;28;20254;-80
2023/08/01 04:19:15;;;;;;;6.50;5.90;;;16.70;82.30;;;;;;6214889;28;20390;-81
2023/08/01 04:22:20;;;;;;;5.87;5.47;;;16.70;82.30;;;;;;6234181;28;20237;-80
2023/08/01 04:25:26;;;;;;;6.03;5.53;;;16.70;82.40;;;;;;6218145;28;20405;-80
2023/08/01 04:28:29;;;;;;;5.87;5.50;;;16.70;82.30;;;;;;6224885;28;20239;-81
2023/08/01 04:31:32;;;;;;;6.13;5.70;;;16.70;82.30;;;;;;6226991;28;20719;-79
2023/08/01 04:34:36;;;;;;;6.30;5.70;;;16.70;82.20;;;;;;6223950;28;20242;-81
2023/08/01 04:37:39;;;;;;;5.77;5.20;;;16.80;82.10;;;;;;6221134;28;20245;-81
2023/08/01 04:40:43;;;;;;;6.07;5.60;;;16.80;82.00;;;;;;6224789;28;20791;-81
2023/08/01 04:43:46;;;;;;;5.83;5.30;;;16.90;81.80;;;;;;6219645;28;20238;-82
2023/08/01 04:46:50;;;;;;;6.37;5.40;;;16.90;81.70;;;;;;6221706;28;20800;-81
2023/08/01 04:49:54;;;;;;;5.10;4.80;;;16.90;81.70;;;;;;6225209;28;20365;-81
2023/08/01 04:52:57;;;;;;;5.30;4.90;;;16.90;81.30;;;;;;6212940;28;20258;-82
2023/08/01 04:56:02;;;;;;;5.33;5.03;;;16.90;81.60;;;;;;6218316;28;20242;-80
2023/08/01 04:59:05;;;;;;;6.00;5.60;;;16.90;81.50;;;;;;6231174;28;20230;-80
2023/08/01 05:02:08;;;;;;;5.20;4.70;;;16.90;81.70;;;;;;6229274;28;20239;-80
2023/08/01 05:05:11;;;;;;;5.67;5.10;;;17.00;81.60;;;;;;6221403;28;20235;-83
2023/08/01 05:08:15;;;;;;;5.97;5.57;;;17.00;81.60;;;;;;6216620;28;20262;-81
2023/08/01 05:11:19;;;;;;;5.67;5.30;;;17.00;81.50;;;;;;6222486;28;20242;-81
2023/08/01 05:14:22;;;;;;;5.80;5.30;;;17.00;81.80;;;;;;6230365;28;20955;-82
2023/08/01 05:17:25;;;;;;;5.27;4.97;;;16.90;81.90;;;;;;6222947;28;20296;-81
2023/08/01 05:20:30;;;;;;;5.13;4.77;;;17.00;82.00;;;;;;6219559;28;20235;-81
2023/08/01 05:23:34;;;;;;;5.40;5.03;;;17.00;81.60;;;;;;6228001;28;20410;-80
2023/08/01 05:26:38;;;;;;;6.40;6.00;;;17.00;81.50;;;;;;6232665;28;20373;-82
2023/08/01 05:29:42;;;;;;;5.87;5.10;;;17.00;81.70;;;;;;6236523;28;20278;-80
2023/08/01 05:32:46;;;;;;;5.13;4.70;;;17.00;81.70;;;;;;6222120;28;20692;-80
2023/08/01 05:35:50;;;;;;;5.40;5.00;;;17.10;81.70;;;;;;6219523;28;20321;-82
2023/08/01 05:38:53;;;;;;;5.63;5.23;;;17.20;81.30;;;;;;6222430;28;20322;-81
2023/08/01 05:41:57;;;;;;;6.67;5.93;;;17.20;81.40;;;;;;6202162;28;20889;-79
2023/08/01 05:45:01;;;;;;;5.90;5.50;;;17.20;81.40;;;;;;6222574;28;20242;-82
2023/08/01 05:48:04;;;;;;;5.83;5.50;;;17.20;81.50;;;;;;6219458;28;20310;-80
2023/08/01 05:51:07;;;;;;;5.40;5.00;;;17.20;81.20;;;;;;6221075;28;20238;-81
2023/08/01 05:54:10;;;;;;;5.00;4.73;;;17.20;80.90;;;;;;6230200;28;20234;-80
2023/08/01 05:57:15;;;;;;;5.53;5.20;;;17.20;80.70;;;;;;6226612;28;20241;-81
2023/08/01 06:00:19;;;;;;;5.70;5.30;;;17.20;81.10;;;;;;6225411;28;20338;-81
2023/08/01 06:03:22;;;;;;;6.03;5.23;;;17.20;80.90;;;;;;6230411;28;20293;-81
2023/08/01 06:06:25;;;;;;;4.90;4.70;;;17.20;80.70;;;;;;6225114;28;20692;-82
2023/08/01 06:09:28;;;;;;;5.30;5.00;;;17.40;80.60;;;;;;6229518;28;20250;-81
2023/08/01 06:12:33;;;;;;;4.83;4.53;;;17.40;80.50;;;;;;6226444;28;20255;-82
2023/08/01 06:15:37;;;;;;;6.47;5.10;;;17.40;80.20;;;;;;6221448;28;20244;-81
2023/08/01 06:18:40;;;;;;;5.53;5.10;;;17.40;80.40;;;;;;6222705;28;20246;-82
2023/08/01 06:21:43;;;;;;;4.83;4.53;;;17.40;80.30;;;;;;6221985;28;20720;-82
2023/08/01 06:24:46;;;;;;;5.10;4.60;;;17.50;80.20;;;;;;6233235;28;20324;-80
2023/08/01 06:27:51;;;;;;;5.00;4.60;;;17.50;80.30;;;;;;6231998;28;20342;-83
2023/08/01 06:30:55;;;;;;;5.33;4.80;;;17.50;80.00;;;;;;6228075;28;20246;-82
2023/08/01 06:33:58;;;;;;;4.50;4.20;;;17.50;80.10;;;;;;6225024;28;20247;-81
2023/08/01 06:37:01;;;;;;;4.73;4.50;;;17.60;79.70;;;;;;6219256;28;20866;-82
2023/08/01 06:40:07;;;;;;;5.10;4.83;;;17.60;80.20;;;;;;6219212;28;20783;-81
2023/08/01 06:43:12;;;;;;;4.57;4.23;;;17.60;79.90;;;;;;6227261;28;20242;-84
2023/08/01 06:46:15;;;;;;;4.73;4.30;;;17.60;79.80;;;;;;6227964;28;20640;-81
2023/08/01 06:49:18;;;;;;;4.53;4.27;;;17.60;80.20;;;;;;6230674;28;20288;-80
2023/08/01 06:52:21;;;;;;;4.53;4.23;;;17.80;79.30;;;;;;6223476;28;20318;-80
2023/08/01 06:55:24;;;;;;;5.20;4.90;;;17.80;79.60;;;;;;6223368;28;20243;-81
2023/08/01 06:58:29;;;;;;;5.53;5.00;;;17.60;79.60;;;;;;6211469;28;20243;-80
2023/08/01 07:01:34;;;;;;;4.40;4.20;;;17.60;79.70;;;;;;6231206;28;20231;-81
2023/08/01 07:04:38;;;;;;;4.77;4.57;;;17.70;79.80;;;;;;6222495;28;20223;-81
2023/08/01 07:07:41;;;;;;;4.97;4.57;;;17.70;79.80;;;;;;6232220;28;20254;-81
2023/08/01 07:10:44;;;;;;;4.67;4.20;;;17.70;80.00;;;;;;6229573;28;20253;-77
2023/08/01 07:13:49;;;;;;;4.50;4.30;;;17.70;79.50;;;;;;6223252;28;20254;-79
2023/08/01 07:16:52;;;;;;;5.13;4.43;;;17.80;79.70;;;;;;6234265;28;20243;-79
2023/08/01 07:19:55;;;;;;;4.23;4.07;;;18.00;79.00;;;;;;6228724;28;20231;-79
2023/08/01 07:22:59;;;;;;;6.17;4.70;;;18.00;78.70;;;;;;6233918;28;20247;-81
2023/08/01 07:26:03;;;;;;;4.00;3.87;;;18.00;78.80;;;;;;6257715;28;20258;-78
2023/08/01 07:29:08;;;;;;;4.40;4.20;;;18.10;78.60;;;;;;6261880;28;20299;-80
2023/08/01 07:32:11;;;;;;;4.50;4.30;;;18.20;78.60;;;;;;6257130;28;20224;-79
2023/08/01 07:35:14;;;;;;;4.07;3.80;;;18.40;78.10;;;;;;6266788;28;20223;-78
2023/08/01 07:38:17;;;;;;;4.40;4.17;;;18.50;77.80;;;;;;6248787;28;20250;-82
2023/08/01 07:41:20;;;;;;;4.43;4.13;;;18.60;76.90;;;;;;6262790;28;20250;-79
2023/08/01 07:44:24;;;;;;;4.53;4.20;;;18.40;77.20;;;;;;6253972;28;20293;-81
2023/08/01 07:47:27;;;;;;;3.90;3.80;;;18.50;77.60;;;;;;6264397;28;20227;-79
2023/08/01 07:50:31;;;;;;;7.83;4.03;;;18.70;77.20;;;;;;6260609;28;20215;-81
2023/08/01 07:53:34;;;;;;;3.97;3.77;;;18.90;76.70;;;;;;6253905;28;20255;-80
2023/08/01 07:56:37;;;;;;;3.73;3.63;;;19.00;76.00;;;;;;6259522;28;20322;-79
2023/08/01 07:59:42;;;;;;;3.57;3.33;;;19.00;75.70;;;;;;6254214;28;20240;-80
2023/08/01 08:02:46;;;;;;;3.90;3.63;;;19.10;76.10;;;;;;6248857;28;20278;-79
2023/08/01 08:05:50;;;;;;;3.47;3.37;;;19.40;74.80;;;;;;6258859;28;20239;-80
2023/08/01 08:08:53;;;;;;;3.67;3.47;;;19.40;74.50;;;;;;6259959;28;20235;-76
2023/08/01 08:11:57;;;;;;;3.70;3.40;;;19.60;74.30;;;;;;6246492;28;20449;-80
2023/08/01 08:15:01;;;;;;;3.63;3.43;;;19.70;73.90;;;;;;6230773;28;20246;-81
2023/08/01 08:18:05;;;;;;;3.77;3.60;;;19.70;73.80;;;;;;6221915;28;20279;-81
2023/08/01 08:21:08;;;;;;;3.50;3.30;;;19.80;74.00;;;;;;6227262;28;20223;-82
2023/08/01 08:24:11;;;;;;;3.57;3.37;;;20.00;73.30;;;;;;6226962;28;20376;-81
2023/08/01 08:27:14;;;;;;;3.50;3.30;;;19.90;73.10;;;;;;6197750;28;20780;-79
2023/08/01 08:30:19;;;;;;;3.50;3.30;;;20.00;73.20;;;;;;6225004;28;20235;-81
2023/08/01 08:33:22;;;;;;;3.07;2.97;;;20.10;73.00;;;;;;6223546;28;20241;-80
2023/08/01 08:36:25;;;;;;;3.50;3.20;;;20.30;72.20;;;;;;6222992;28;20230;-79
2023/08/01 08:39:28;;;;;;;3.27;3.03;;;20.30;71.40;;;;;;6234492;28;20348;-80
2023/08/01 08:42:34;;;;;;;3.33;3.23;;;20.40;71.30;;;;;;6230403;28;20234;-81
2023/08/01 08:45:44;;;;;;;3.40;3.20;;;20.60;70.90;;;;;;6221602;28;20802;-80
2023/08/01 08:48:47;;;;;;;3.20;3.00;;;20.50;70.90;;;;;;6223913;28;20281;-80
2023/08/01 08:51:50;;;;;;;2.70;2.70;;;20.60;70.90;;;;;;6215510;28;20239;-80
2023/08/01 08:54:54;;;;;;;3.03;2.93;;;20.60;70.70;;;;;;6220603;28;20369;-79
2023/08/01 08:57:58;;;;;;;5.20;2.80;;;20.80;70.30;;;;;;6223597;28;20250;-80
2023/08/01 09:01:03;;;;;;;3.13;2.90;;;20.70;70.40;;;;;;6228823;28;20231;-82
2023/08/01 09:04:07;;;;;;;3.10;2.90;;;20.60;70.50;;;;;;6228657;28;20254;-81
2023/08/01 09:07:11;;;;;;;3.30;3.17;;;20.60;70.20;;;;;;6216159;28;20883;-81
2023/08/01 09:10:14;;;;;;;3.37;3.27;;;20.70;69.90;;;;;;6228967;28;20239;-80
2023/08/01 09:13:17;;;;;;;2.80;2.70;;;21.00;69.80;;;;;;6219327;28;20231;-79
2023/08/01 09:16:22;;;;;;;2.80;2.80;;;21.00;69.40;;;;;;6224908;28;20378;-80
2023/08/01 09:19:27;;;;;;;2.90;2.70;;;20.90;69.00;;;;;;6221736;28;20246;-81
2023/08/01 09:22:41;;;;;;;2.37;2.37;;;21.10;69.40;;;;;;6218981;28;20747;-79
2023/08/01 09:25:45;;;;;;;2.00;2.00;;;21.50;67.60;;;;;;6221849;28;20238;-81
2023/08/01 09:28:56;;;;;;;1.93;1.80;;;21.50;67.30;;;;;;6214816;28;20251;-80
2023/08/01 09:32:12;;;;;;;2.17;2.00;;;21.70;65.90;;;;;;6220317;28;20289;-80
2023/08/01 09:35:15;;;;;;;1.73;1.73;;;21.70;66.70;;;;;;6207160;28;20796;-82
2023/08/01 09:38:19;;;;;;;2.17;2.00;;;21.50;65.60;;;;;;6212396;28;20406;-79
2023/08/01 09:41:23;;;;;;;1.90;1.90;;;21.30;66.50;;;;;;6227422;28;20230;-81
2023/08/01 09:44:27;;;;;;;2.30;2.30;;;21.10;65.30;;;;;;6205808;28;20328;-80
2023/08/01 09:47:38;;;;;;;2.10;2.10;;;20.70;66.60;;;;;;6222523;28;20835;-83
2023/08/01 09:50:41;;;;;;;2.13;2.13;;;20.40;68.00;;;;;;6225410;28;20248;-80
2023/08/01 09:53:49;;;;;;;2.00;2.00;;;20.10;70.10;;;;;;6222410;28;20795;-81
2023/08/01 09:56:54;;;;;;;1.97;1.90;;;20.00;69.60;;;;;;6232400;28;20243;-81
2023/08/01 09:59:57;;;;;;;2.00;2.00;;;20.00;70.40;;;;;;6221627;28;20235;-81
2023/08/01 10:03:02;;;;;;;1.80;1.80;;;20.30;69.20;;;;;;6216545;28;20234;-82
2023/08/01 10:06:07;;;;;;;2.00;2.00;;;20.50;68.80;;;;;;6219920;28;21096;-83
2023/08/01 10:09:11;;;;;;;1.93;1.93;;;20.80;68.70;;;;;;6218432;28;20231;-81
2023/08/01 10:12:18;;;;;;;1.60;1.60;;;20.90;67.40;;;;;;6219318;28;20231;-79
2023/08/01 10:15:21;;;;;;;2.73;1.90;;;20.70;67.30;;;;;;6224668;28;20230;-83
2023/08/01 10:18:26;;;;;;;3.50;1.70;;;20.50;67.90;;;;;;6223846;28;20289;-81
2023/08/01 10:21:31;;;;;;;1.83;1.83;;;20.40;68.40;;;;;;6223295;28;20227;-81
2023/08/01 10:24:34;;;;;;;1.50;1.50;;;20.30;68.20;;;;;;6232295;28;20429;-81
2023/08/01 10:27:38;;;;;;;1.63;1.63;;;20.30;68.30;;;;;;6224606;28;20683;-82
2023/08/01 10:30:41;;;;;;;1.90;1.90;;;20.00;68.90;;;;;;6229115;28;20269;-83
2023/08/01 10:33:47;;;;;;;1.57;1.57;;;20.20;68.90;;;;;;6227766;28;20321;-82
2023/08/01 10:36:58;;;;;;;1.80;1.70;;;20.20;68.40;;;;;;6224904;28;20262;-82
2023/08/01 10:40:01;;;;;;;3.17;2.17;;;20.30;68.60;;;;;;6226107;28;20321;-80
2023/08/01 10:43:04;;;;;;;1.70;1.70;;;20.30;69.10;;;;;;6227086;28;20373;-81
2023/08/01 10:46:07;;;;;;;1.60;1.60;;;20.10;69.20;;;;;;6227724;28;20241;-82
2023/08/01 10:49:17;;;;;;;1.90;1.90;;;20.00;69.30;;;;;;6231081;28;20231;-81
2023/08/01 10:52:23;;;;;;;1.70;1.70;;;19.70;71.70;;;;;;6217580;28;20398;-80
2023/08/01 10:55:26;;;;;;;1.87;1.87;;;19.00;74.70;;;;;;6220492;28;20355;-81
2023/08/01 10:58:32;;;;;;;3.40;2.43;;;18.70;75.80;;;;;;6222099;28;20321;-79
2023/08/01 11:01:45;;;;;;;1.97;1.97;;;18.50;77.00;;;;;;6219553;28;20246;-83
2023/08/01 11:04:58;;;;;;;1.97;1.87;;;18.40;77.50;;;;;;6225679;28;20251;-80
2023/08/01 11:08:02;;;;;;;1.87;1.87;;;18.30;77.50;;;;;;6218484;28;20274;-81
2023/08/01 11:11:07;;;;;;;2.30;2.10;;;18.30;78.10;;;;;;6225685;28;20239;-81
2023/08/01 11:14:12;;;;;;;2.17;2.07;;;18.30;78.40;;;;;;6227828;28;20250;-81
2023/08/01 11:17:15;;;;;;;1.90;1.80;;;18.30;78.90;;;;;;6219741;28;20243;-81
2023/08/01 11:20:22;;;;;;;2.53;2.40;;;18.30;78.20;;;;;;6222318;28;20235;-80
2023/08/01 11:23:29;;;;;;;2.93;2.60;;;18.40;77.20;;;;;;6226473;28;20241;-81
2023/08/01 11:26:33;;;;;;;2.17;2.17;;;18.20;77.10;;;;;;6222728;28;20237;-81
2023/08/01 11:29:40;;;;;;;2.13;2.13;;;18.40;77.10;;;;;;6223941;28;20638;-81
2023/08/01 11:32:43;;;;;;;2.43;2.13;;;18.50;77.10;;;;;;6232165;28;20921;-80
2023/08/01 11:35:51;;;;;;;2.63;2.43;;;18.60;76.60;;;;;;6225703;28;20242;-80
2023/08/01 11:38:55;;;;;;;2.40;2.30;;;18.70;77.10;;;;;;6219639;28;20751;-80
2023/08/01 11:41:58;;;;;;;2.53;2.40;;;18.90;76.40;;;;;;6231537;28;20241;-83
2023/08/01 11:45:12;;;;;;;2.47;2.47;;;19.10;75.50;;;;;;6221185;28;20245;-83
2023/08/01 11:48:15;;;;;;;3.50;3.40;;;19.20;74.50;;;;;;6230998;28;20362;-83
2023/08/01 11:51:20;;;;;;;3.60;3.30;;;19.20;73.30;;;;;;6223270;28;20320;-81
2023/08/01 11:54:23;;;;;;;3.90;3.80;;;19.40;72.40;;;;;;6224840;28;20648;-80
2023/08/01 11:57:26;;;;;;;4.43;3.60;;;19.40;71.50;;;;;;6226223;28;20291;-82
2023/08/01 12:00:30;;;;;;;3.30;3.20;;;19.30;72.20;;;;;;6218600;28;21446;-81
2023/08/01 12:03:42;;;;;;;3.47;3.27;;;19.50;72.60;;;;;;6224348;28;20250;-80
2023/08/01 12:06:47;;;;;;;3.40;3.07;;;19.50;73.30;;;;;;6224630;28;20251;-79
2023/08/01 12:09:57;;;;;;;3.80;3.57;;;19.60;72.30;;;;;;6229194;28;20295;-82
2023/08/01 12:13:00;;;;;;;4.30;4.10;;;19.40;72.40;;;;;;6219154;28;20242;-81
2023/08/01 12:16:04;;;;;;;4.47;4.17;;;19.40;73.20;;;;;;6217046;28;20239;-80
2023/08/01 12:19:08;;;;;;;4.47;4.27;;;19.40;72.90;;;;;;6229141;28;20242;-80
2023/08/01 12:22:14;;;;;;;3.90;3.80;;;19.70;71.70;;;;;;6212694;28;20676;-82
2023/08/01 12:25:17;;;;;;;4.20;3.93;;;19.70;69.90;;;;;;6225246;28;20762;-83
2023/08/01 12:28:21;;;;;;;4.80;4.37;;;19.70;69.30;;;;;;6226417;28;20316;-80
2023/08/01 12:31:24;;;;;;;4.47;4.17;;;19.70;69.20;;;;;;6228254;28;20245;-82
2023/08/01 12:34:28;;;;;;;4.57;4.33;;;19.60;70.10;;;;;;6227082;28;20262;-80
2023/08/01 12:37:32;;;;;;;4.90;4.50;;;19.50;70.60;;;;;;6223729;28;20246;-83
2023/08/01 12:40:36;;;;;;;4.77;4.40;;;19.80;70.70;;;;;;6237378;28;20964;-82
2023/08/01 12:43:39;;;;;;;4.00;3.83;;;20.00;69.50;;;;;;6215790;28;20251;-84
2023/08/01 12:46:42;;;;;;;4.27;4.07;;;20.30;69.40;;;;;;6234195;28;20250;-81
2023/08/01 12:49:49;;;;;;;4.00;3.90;;;20.50;66.90;;;;;;6219948;28;20250;-81
2023/08/01 12:52:54;;;;;;;4.50;4.20;;;20.50;67.20;;;;;;6225965;28;20238;-81
2023/08/01 12:55:57;;;;;;;5.00;4.70;;;20.30;67.10;;;;;;6220609;28;20242;-82
2023/08/01 12:59:00;;;;;;;5.00;4.70;;;20.30;67.70;;;;;;6221036;28;20320;-79
2023/08/01 13:02:08;;;;;;;4.40;4.20;;;20.20;67.60;;;;;;6223810;28;20242;-82
2023/08/01 13:05:12;;;;;;;4.80;4.50;;;20.20;68.30;;;;;;6229154;28;20300;-82
2023/08/01 13:08:17;;;;;;;4.60;4.40;;;20.10;67.50;;;;;;6227623;28;20246;-80
2023/08/01 13:11:20;;;;;;;4.53;4.13;;;20.10;67.40;;;;;;6238019;28;20246;-83
2023/08/01 13:14:25;;;;;;;4.60;4.40;;;20.50;68.00;;;;;;6227049;28;20242;-82
2023/08/01 13:17:30;;;;;;;4.47;4.27;;;20.70;66.50;;;;;;6231230;28;20234;-81
2023/08/01 13:20:34;;;;;;;5.10;4.60;;;20.60;66.60;;;;;;6220414;28;20227;-82
2023/08/01 13:23:40;;;;;;;5.10;4.70;;;20.60;67.00;;;;;;6224848;28;20881;-82
2023/08/01 13:26:43;;;;;;;4.70;4.30;;;20.90;66.30;;;;;;6228713;28;20661;-82
2023/08/01 13:29:46;;;;;;;4.03;3.90;;;21.20;65.40;;;;;;6218712;28;20393;-82
2023/08/01 13:32:49;;;;;;;4.20;4.00;;;21.30;65.10;;;;;;6234325;28;20234;-81
2023/08/01 13:35:53;;;;;;;4.20;4.00;;;21.10;65.40;;;;;;6236876;28;20237;-82
2023/08/01 13:38:58;;;;;;;5.77;4.50;;;21.30;65.30;;;;;;6238998;28;20269;-82
2023/08/01 13:42:01;;;;;;;4.00;3.90;;;21.50;64.60;;;;;;6223772;28;20249;-83
2023/08/01 13:45:08;;;;;;;4.33;4.03;;;21.00;65.10;;;;;;6219711;28;20275;-81
2023/08/01 13:48:11;;;;;;;4.23;3.93;;;21.30;65.70;;;;;;6222154;28;20231;-82
2023/08/01 13:51:15;;;;;;;4.40;4.10;;;21.30;64.90;;;;;;6231633;28;20589;-84
2023/08/01 13:54:19;;;;;;;4.20;3.90;;;21.20;64.60;;;;;;6225299;28;20231;-83
2023/08/01 13:57:23;;;;;;;4.93;4.13;;;21.40;64.60;;;;;;6225596;28;20862;-83
2023/08/01 14:00:30;;;;;;;4.37;4.07;;;21.40;63.70;;;;;;6249405;28;20244;-81
2023/08/01 14:03:34;;;;;;;5.03;4.60;;;21.50;64.10;;;;;;6231848;28;20231;-80
2023/08/01 14:06:38;;;;;;;4.83;4.50;;;21.70;63.60;;;;;;6228594;28;20231;-81
2023/08/01 14:09:43;;;;;;;4.13;3.80;;;21.90;63.30;;;;;;6227467;28;20234;-81
2023/08/01 14:12:46;;;;;;;4.60;4.40;;;22.20;62.00;;;;;;6220324;28;20366;-81
2023/08/01 14:15:49;;;;;;;4.70;4.40;;;21.90;62.60;;;;;;6222193;28;20235;-80
2023/08/01 14:18:52;;;;;;;4.83;4.27;;;21.90;62.40;;;;;;6227780;28;20310;-81
2023/08/01 14:21:55;;;;;;;5.77;4.00;;;21.70;62.90;;;;;;6231243;28;20259;-80
2023/08/01 14:25:00;;;;;;;4.10;3.90;;;21.50;62.50;;;;;;6229708;28;20399;-82
2023/08/01 14:28:03;;;;;;;4.17;3.87;;;21.80;62.00;;;;;;6225879;28;20248;-78
2023/08/01 14:31:07;;;;;;;4.40;4.00;;;22.00;61.10;;;;;;6234398;28;20238;-81
2023/08/01 14:34:10;;;;;;;4.60;4.30;;;22.30;61.40;;;;;;6231323;28;20247;-80
2023/08/01 14:37:13;;;;;;;6.83;3.80;;;22.50;59.60;;;;;;6230592;28;20315;-80
2023/08/01 14:40:18;;;;;;;4.93;4.43;;;22.20;59.70;;;;;;6230652;28;20282;-81
2023/08/01 14:43:21;;;;;;;4.73;4.43;;;22.20;59.70;;;;;;6208471;28;20231;-85
2023/08/01 14:46:24;;;;;;;4.47;4.23;;;22.50;60.50;;;;;;6226956;28;20763;-82
2023/08/01 14:49:29;;;;;;;4.20;3.90;;;22.40;59.30;;;;;;6234197;28;20351;-79
2023/08/01 14:52:32;;;;;;;4.20;4.07;;;22.20;59.30;;;;;;6230671;28;20239;-82
2023/08/01 14:55:37;;;;;;;3.87;3.67;;;22.20;59.10;;;;;;6224369;28;20617;-83
2023/08/01 14:58:42;;;;;;;3.93;3.63;;;22.10;59.00;;;;;;6222789;28;20325;-83
2023/08/01 15:01:45;;;;;;;3.70;3.53;;;22.40;58.20;;;;;;6233618;28;20313;-78
2023/08/01 15:04:53;;;;;;;6.10;3.70;;;22.20;58.00;;;;;;6232407;28;20696;-79
2023/08/01 15:07:56;;;;;;;3.63;3.33;;;21.70;58.40;;;;;;6222437;28;20240;-79
2023/08/01 15:11:04;;;;;;;3.50;3.40;;;21.50;58.40;;;;;;6220733;28;20294;-81
2023/08/01 15:14:07;;;;;;;6.67;3.90;;;21.40;59.20;;;;;;6228981;28;20442;-80
2023/08/01 15:17:10;;;;;;;4.20;3.80;;;21.40;60.40;;;;;;6225631;28;20250;-79
2023/08/01 15:20:13;;;;;;;4.30;3.90;;;21.10;62.90;;;;;;6229206;28;20319;-80
2023/08/01 15:23:19;;;;;;;5.33;3.07;;;20.30;68.20;;;;;;6228145;28;20838;-81
2023/08/01 15:26:24;;;;;;;3.23;3.03;;;19.20;68.60;;;;;;6232758;28;20852;-79
2023/08/01 15:29:27;;;;;;;3.40;3.20;;;18.70;71.10;;;;;;6225416;28;20731;-80
2023/08/01 15:32:30;;;;;;;3.57;3.30;;;18.20;73.00;;;;;;6218635;28;20235;-82
2023/08/01 15:35:33;;;;;;;3.50;3.40;;;18.10;73.90;;;;;;6226746;28;20369;-82
2023/08/01 15:38:38;;;;;;;3.47;3.37;;;18.10;74.60;;;;;;6226807;28;20243;-79
2023/08/01 15:41:43;;;;;;;3.97;3.63;;;18.00;74.90;;;;;;6224946;28;20230;-81
2023/08/01 15:44:46;;;;;;;3.53;3.33;;;18.20;74.20;;;;;;6226250;28;20241;-82
2023/08/01 15:47:49;;;;;;;3.93;3.67;;;18.30;74.70;;;;;;6222259;28;20242;-81
2023/08/01 15:50:52;;;;;;;3.20;3.10;;;18.30;74.30;;;;;;6234447;28;20748;-79
2023/08/01 15:53:56;;;;;;;3.47;3.33;;;18.40;74.10;;;;;;6224876;28;20321;-81
2023/08/01 15:57:00;;;;;;;2.97;2.87;;;18.30;73.80;;;;;;6221522;28;20748;-81
2023/08/01 16:00:04;;;;;;;3.83;3.53;;;18.40;74.20;;;;;;6211615;28;20324;-82